sensor_id;sensor_type;location;lat;lon;timestamp;temperature;humidity
11536;DHT22;5824;49.336;8.652;2022-09-21T00:01:47;8.50;1.00
11536;DHT22;5824;49.336;8.652;2022-09-21T00:04:13;8.50;1.00
11536;DHT22;5824;49.336;8.652;2022-09-21T00:06:38;8.50;1.00
11536;DHT22;5824;49.336;8.652;2022-09-21T00:09:04;8.50;1.00
11536;DHT22;5824;49.336;8.652;2022-09-21T00:11:31;8.40;1.00
11536;DHT22;5824;49.336;8.652;2022-09-21T00:14:02;8.30;1.00
11536;DHT22;5824;49.336;8.652;2022-09-21T00:16:29;8.30;1.00
11536;DHT22;5824;49.336;8.652;2022-09-21T00:18:56;8.20;1.00
11536;DHT22;5824;49.336;8.652;2022-09-21T00:21:21;8.10;1.00
11536;DHT22;5824;49.336;8.652;2022-09-21T00:23:47;8.10;1.00
11536;DHT22;5824;49.336;8.652;2022-09-21T00:26:16;8.10;1.00
11536;DHT22;5824;49.336;8.652;2022-09-21T00:28:42;8.00;1.00
11536;DHT22;5824;49.336;8.652;2022-09-21T00:31:11;7.90;1.00
11536;DHT22;5824;49.336;8.652;2022-09-21T00:33:38;7.90;1.00
11536;DHT22;5824;49.336;8.652;2022-09-21T00:36:05;7.80;1.00
11536;DHT22;5824;49.336;8.652;2022-09-21T00:38:32;7.80;1.00
11536;DHT22;5824;49.336;8.652;2022-09-21T00:40:58;7.80;1.00
11536;DHT22;5824;49.336;8.652;2022-09-21T00:43:23;7.80;1.00
11536;DHT22;5824;49.336;8.652;2022-09-21T00:45:50;7.80;2.00
11536;DHT22;5824;49.336;8.652;2022-09-21T00:48:18;7.80;1.00
11536;DHT22;5824;49.336;8.652;2022-09-21T00:50:48;7.80;1.00
11536;DHT22;5824;49.336;8.652;2022-09-21T00:53:16;7.70;1.00
11536;DHT22;5824;49.336;8.652;2022-09-21T00:55:46;7.60;1.00
11536;DHT22;5824;49.336;8.652;2022-09-21T00:58:17;7.50;1.00
11536;DHT22;5824;49.336;8.652;2022-09-21T01:00:44;7.50;1.00
11536;DHT22;5824;49.336;8.652;2022-09-21T01:03:11;7.40;1.00
11536;DHT22;5824;49.336;8.652;2022-09-21T01:05:36;7.50;1.00
11536;DHT22;5824;49.336;8.652;2022-09-21T01:08:04;7.40;1.00
11536;DHT22;5824;49.336;8.652;2022-09-21T01:16:41;7.40;1.00
11536;DHT22;5824;49.336;8.652;2022-09-21T01:28:01;7.50;1.00
11536;DHT22;5824;49.336;8.652;2022-09-21T01:30:33;7.50;1.00
11536;DHT22;5824;49.336;8.652;2022-09-21T01:33:25;7.40;1.00
11536;DHT22;5824;49.336;8.652;2022-09-21T01:36:00;7.40;1.00
11536;DHT22;5824;49.336;8.652;2022-09-21T01:38:32;7.50;1.00
11536;DHT22;5824;49.336;8.652;2022-09-21T01:41:02;7.40;1.00
11536;DHT22;5824;49.336;8.652;2022-09-21T01:43:38;7.40;1.00
11536;DHT22;5824;49.336;8.652;2022-09-21T01:46:08;7.40;1.00
11536;DHT22;5824;49.336;8.652;2022-09-21T01:48:38;7.50;1.00
11536;DHT22;5824;49.336;8.652;2022-09-21T01:51:08;7.40;1.00
11536;DHT22;5824;49.336;8.652;2022-09-21T01:56:17;7.40;1.00
11536;DHT22;5824;49.336;8.652;2022-09-21T02:01:18;7.20;1.00
11536;DHT22;5824;49.336;8.652;2022-09-21T02:03:53;7.20;1.00
11536;DHT22;5824;49.336;8.652;2022-09-21T02:06:24;7.20;1.00
11536;DHT22;5824;49.336;8.652;2022-09-21T02:08:51;7.20;1.00
11536;DHT22;5824;49.336;8.652;2022-09-21T02:11:17;7.10;1.00
11536;DHT22;5824;49.336;8.652;2022-09-21T02:13:44;7.10;1.00
11536;DHT22;5824;49.336;8.652;2022-09-21T02:16:39;7.00;1.00
11536;DHT22;5824;49.336;8.652;2022-09-21T02:19:29;7.00;1.00
11536;DHT22;5824;49.336;8.652;2022-09-21T02:22:12;7.00;1.00
11536;DHT22;5824;49.336;8.652;2022-09-21T02:24:46;7.00;1.00
11536;DHT22;5824;49.336;8.652;2022-09-21T02:30:06;7.00;1.00
11536;DHT22;5824;49.336;8.652;2022-09-21T02:32:42;6.80;1.00
11536;DHT22;5824;49.336;8.652;2022-09-21T02:37:52;7.00;1.00
11536;DHT22;5824;49.336;8.652;2022-09-21T02:40:32;7.00;1.00
11536;DHT22;5824;49.336;8.652;2022-09-21T02:43:10;6.90;1.00
11536;DHT22;5824;49.336;8.652;2022-09-21T02:46:06;6.90;1.00
11536;DHT22;5824;49.336;8.652;2022-09-21T02:48:37;6.90;1.00
11536;DHT22;5824;49.336;8.652;2022-09-21T02:51:10;7.00;1.00
11536;DHT22;5824;49.336;8.652;2022-09-21T02:53:39;6.70;1.00
11536;DHT22;5824;49.336;8.652;2022-09-21T02:56:07;6.70;1.00
11536;DHT22;5824;49.336;8.652;2022-09-21T02:58:37;6.70;1.00
11536;DHT22;5824;49.336;8.652;2022-09-21T03:01:04;6.70;1.00
11536;DHT22;5824;49.336;8.652;2022-09-21T03:03:31;6.60;1.00
11536;DHT22;5824;49.336;8.652;2022-09-21T03:05:57;6.60;1.00
11536;DHT22;5824;49.336;8.652;2022-09-21T03:08:23;6.50;1.00
11536;DHT22;5824;49.336;8.652;2022-09-21T03:10:48;6.50;1.00
11536;DHT22;5824;49.336;8.652;2022-09-21T03:13:15;6.40;1.00
11536;DHT22;5824;49.336;8.652;2022-09-21T03:15:41;6.30;1.00
11536;DHT22;5824;49.336;8.652;2022-09-21T03:18:07;6.40;1.00
11536;DHT22;5824;49.336;8.652;2022-09-21T03:20:37;6.30;1.00
11536;DHT22;5824;49.336;8.652;2022-09-21T03:23:04;6.30;1.00
11536;DHT22;5824;49.336;8.652;2022-09-21T03:25:30;6.40;1.00
11536;DHT22;5824;49.336;8.652;2022-09-21T03:27:56;6.40;1.00
11536;DHT22;5824;49.336;8.652;2022-09-21T03:30:24;6.40;1.00
11536;DHT22;5824;49.336;8.652;2022-09-21T03:32:53;6.40;1.00
11536;DHT22;5824;49.336;8.652;2022-09-21T03:35:21;6.40;1.00
11536;DHT22;5824;49.336;8.652;2022-09-21T03:37:48;6.30;1.00
11536;DHT22;5824;49.336;8.652;2022-09-21T03:40:15;6.40;1.00
11536;DHT22;5824;49.336;8.652;2022-09-21T03:42:41;6.30;1.00
11536;DHT22;5824;49.336;8.652;2022-09-21T03:45:08;6.30;1.00
11536;DHT22;5824;49.336;8.652;2022-09-21T03:47:34;6.30;1.00
11536;DHT22;5824;49.336;8.652;2022-09-21T03:50:00;6.30;1.00
11536;DHT22;5824;49.336;8.652;2022-09-21T03:52:25;6.30;1.00
11536;DHT22;5824;49.336;8.652;2022-09-21T03:54:51;6.30;1.00
11536;DHT22;5824;49.336;8.652;2022-09-21T03:57:16;6.30;1.00
11536;DHT22;5824;49.336;8.652;2022-09-21T03:59:42;6.30;1.00
11536;DHT22;5824;49.336;8.652;2022-09-21T04:02:08;6.30;1.00
11536;DHT22;5824;49.336;8.652;2022-09-21T04:04:33;6.30;1.00
11536;DHT22;5824;49.336;8.652;2022-09-21T04:06:59;6.30;1.00
11536;DHT22;5824;49.336;8.652;2022-09-21T04:09:24;6.30;1.00
11536;DHT22;5824;49.336;8.652;2022-09-21T04:11:50;6.30;1.00
11536;DHT22;5824;49.336;8.652;2022-09-21T04:14:17;6.30;1.00
11536;DHT22;5824;49.336;8.652;2022-09-21T04:16:43;6.30;1.00
11536;DHT22;5824;49.336;8.652;2022-09-21T04:19:08;6.30;1.00
11536;DHT22;5824;49.336;8.652;2022-09-21T04:21:34;6.30;1.00
11536;DHT22;5824;49.336;8.652;2022-09-21T04:24:00;6.20;1.00
11536;DHT22;5824;49.336;8.652;2022-09-21T04:26:31;6.20;1.00
11536;DHT22;5824;49.336;8.652;2022-09-21T04:28:57;6.30;1.00
11536;DHT22;5824;49.336;8.652;2022-09-21T04:31:24;6.20;1.00
11536;DHT22;5824;49.336;8.652;2022-09-21T04:33:52;6.20;1.20
11536;DHT22;5824;49.336;8.652;2022-09-21T04:36:18;6.20;1.10
11536;DHT22;5824;49.336;8.652;2022-09-21T04:38:44;6.10;1.00
11536;DHT22;5824;49.336;8.652;2022-09-21T04:41:10;6.10;1.00
11536;DHT22;5824;49.336;8.652;2022-09-21T04:43:36;6.00;1.00
11536;DHT22;5824;49.336;8.652;2022-09-21T04:46:10;5.90;1.00
11536;DHT22;5824;49.336;8.652;2022-09-21T04:48:37;5.90;1.00
11536;DHT22;5824;49.336;8.652;2022-09-21T04:51:03;5.80;1.00
11536;DHT22;5824;49.336;8.652;2022-09-21T04:53:30;5.70;1.00
11536;DHT22;5824;49.336;8.652;2022-09-21T04:55:56;5.70;1.00
11536;DHT22;5824;49.336;8.652;2022-09-21T04:58:22;5.70;1.00
11536;DHT22;5824;49.336;8.652;2022-09-21T05:00:49;5.60;1.00
11536;DHT22;5824;49.336;8.652;2022-09-21T05:03:15;5.60;1.00
11536;DHT22;5824;49.336;8.652;2022-09-21T05:05:48;5.60;1.00
11536;DHT22;5824;49.336;8.652;2022-09-21T05:08:15;5.60;1.00
11536;DHT22;5824;49.336;8.652;2022-09-21T05:10:41;5.60;1.00
11536;DHT22;5824;49.336;8.652;2022-09-21T05:13:07;5.30;1.00
11536;DHT22;5824;49.336;8.652;2022-09-21T05:15:32;5.60;1.00
11536;DHT22;5824;49.336;8.652;2022-09-21T05:17:58;5.80;1.00
11536;DHT22;5824;49.336;8.652;2022-09-21T05:20:23;5.60;1.00
11536;DHT22;5824;49.336;8.652;2022-09-21T05:22:49;5.70;1.00
11536;DHT22;5824;49.336;8.652;2022-09-21T05:25:14;5.80;1.00
11536;DHT22;5824;49.336;8.652;2022-09-21T05:27:40;5.60;1.00
11536;DHT22;5824;49.336;8.652;2022-09-21T05:30:06;5.70;1.00
11536;DHT22;5824;49.336;8.652;2022-09-21T05:32:48;5.70;1.00
11536;DHT22;5824;49.336;8.652;2022-09-21T05:38:11;5.70;1.00
11536;DHT22;5824;49.336;8.652;2022-09-21T05:40:41;5.90;1.00
11536;DHT22;5824;49.336;8.652;2022-09-21T05:43:08;5.80;1.00
11536;DHT22;5824;49.336;8.652;2022-09-21T05:45:37;5.90;1.00
11536;DHT22;5824;49.336;8.652;2022-09-21T05:48:39;5.90;1.00
11536;DHT22;5824;49.336;8.652;2022-09-21T05:51:05;6.10;1.00
11536;DHT22;5824;49.336;8.652;2022-09-21T05:53:49;6.20;1.00
11536;DHT22;5824;49.336;8.652;2022-09-21T05:59:46;6.30;1.00
11536;DHT22;5824;49.336;8.652;2022-09-21T06:02:42;6.40;1.00
11536;DHT22;5824;49.336;8.652;2022-09-21T06:05:13;6.50;1.00
11536;DHT22;5824;49.336;8.652;2022-09-21T06:07:39;6.60;1.00
11536;DHT22;5824;49.336;8.652;2022-09-21T06:10:06;6.70;1.00
11536;DHT22;5824;49.336;8.652;2022-09-21T06:12:32;7.10;1.10
11536;DHT22;5824;49.336;8.652;2022-09-21T06:14:58;7.90;1.00
11536;DHT22;5824;49.336;8.652;2022-09-21T06:17:23;8.80;1.00
11536;DHT22;5824;49.336;8.652;2022-09-21T06:19:52;9.80;1.00
11536;DHT22;5824;49.336;8.652;2022-09-21T06:22:17;10.40;1.00
11536;DHT22;5824;49.336;8.652;2022-09-21T06:24:43;11.10;1.00
11536;DHT22;5824;49.336;8.652;2022-09-21T06:27:08;11.50;1.00
11536;DHT22;5824;49.336;8.652;2022-09-21T06:29:33;11.80;1.00
11536;DHT22;5824;49.336;8.652;2022-09-21T06:32:01;11.60;1.00
11536;DHT22;5824;49.336;8.652;2022-09-21T06:34:27;11.40;1.00
11536;DHT22;5824;49.336;8.652;2022-09-21T06:36:52;11.30;1.00
11536;DHT22;5824;49.336;8.652;2022-09-21T06:39:18;11.20;1.00
11536;DHT22;5824;49.336;8.652;2022-09-21T06:41:43;11.50;1.00
11536;DHT22;5824;49.336;8.652;2022-09-21T06:44:09;12.20;1.00
11536;DHT22;5824;49.336;8.652;2022-09-21T06:46:34;12.50;1.00
11536;DHT22;5824;49.336;8.652;2022-09-21T06:49:00;12.20;1.00
11536;DHT22;5824;49.336;8.652;2022-09-21T06:51:25;11.80;1.00
11536;DHT22;5824;49.336;8.652;2022-09-21T06:53:55;11.60;1.00
11536;DHT22;5824;49.336;8.652;2022-09-21T06:56:21;10.90;1.00
11536;DHT22;5824;49.336;8.652;2022-09-21T06:58:46;10.90;1.00
11536;DHT22;5824;49.336;8.652;2022-09-21T07:01:13;10.70;1.00
11536;DHT22;5824;49.336;8.652;2022-09-21T07:03:40;10.80;1.00
11536;DHT22;5824;49.336;8.652;2022-09-21T07:06:07;10.90;1.00
11536;DHT22;5824;49.336;8.652;2022-09-21T07:08:33;11.20;1.00
11536;DHT22;5824;49.336;8.652;2022-09-21T07:11:00;11.50;1.00
11536;DHT22;5824;49.336;8.652;2022-09-21T07:13:27;12.00;1.00
11536;DHT22;5824;49.336;8.652;2022-09-21T07:15:53;12.60;1.00
11536;DHT22;5824;49.336;8.652;2022-09-21T07:18:19;13.30;1.00
11536;DHT22;5824;49.336;8.652;2022-09-21T07:20:45;13.80;1.00
11536;DHT22;5824;49.336;8.652;2022-09-21T07:23:14;14.50;1.00
11536;DHT22;5824;49.336;8.652;2022-09-21T07:25:41;15.00;1.00
11536;DHT22;5824;49.336;8.652;2022-09-21T07:28:08;15.50;1.00
11536;DHT22;5824;49.336;8.652;2022-09-21T07:30:36;15.90;1.00
11536;DHT22;5824;49.336;8.652;2022-09-21T07:33:03;16.40;1.00
11536;DHT22;5824;49.336;8.652;2022-09-21T07:35:28;16.90;1.00
11536;DHT22;5824;49.336;8.652;2022-09-21T07:37:57;17.60;1.00
11536;DHT22;5824;49.336;8.652;2022-09-21T07:40:22;18.50;1.00
11536;DHT22;5824;49.336;8.652;2022-09-21T07:42:48;19.20;1.00
11536;DHT22;5824;49.336;8.652;2022-09-21T07:45:14;19.90;1.00
11536;DHT22;5824;49.336;8.652;2022-09-21T07:47:39;20.50;1.00
11536;DHT22;5824;49.336;8.652;2022-09-21T07:50:05;21.00;1.00
11536;DHT22;5824;49.336;8.652;2022-09-21T07:52:31;20.90;1.00
11536;DHT22;5824;49.336;8.652;2022-09-21T07:54:56;20.70;1.00
11536;DHT22;5824;49.336;8.652;2022-09-21T07:57:22;20.80;1.00
11536;DHT22;5824;49.336;8.652;2022-09-21T08:00:11;21.50;1.00
11536;DHT22;5824;49.336;8.652;2022-09-21T08:02:36;22.00;1.00
11536;DHT22;5824;49.336;8.652;2022-09-21T08:05:02;22.40;1.00
11536;DHT22;5824;49.336;8.652;2022-09-21T08:07:28;22.60;1.00
11536;DHT22;5824;49.336;8.652;2022-09-21T08:09:53;23.10;1.00
11536;DHT22;5824;49.336;8.652;2022-09-21T08:12:19;23.90;1.00
11536;DHT22;5824;49.336;8.652;2022-09-21T08:14:45;24.40;1.00
11536;DHT22;5824;49.336;8.652;2022-09-21T08:17:12;24.70;1.00
11536;DHT22;5824;49.336;8.652;2022-09-21T08:19:37;24.70;1.00
11536;DHT22;5824;49.336;8.652;2022-09-21T08:22:03;25.00;1.00
11536;DHT22;5824;49.336;8.652;2022-09-21T08:24:28;25.30;1.00
11536;DHT22;5824;49.336;8.652;2022-09-21T08:26:55;25.20;1.00
11536;DHT22;5824;49.336;8.652;2022-09-21T08:29:23;25.90;1.00
11536;DHT22;5824;49.336;8.652;2022-09-21T08:31:49;26.70;1.00
11536;DHT22;5824;49.336;8.652;2022-09-21T08:34:15;27.30;1.00
11536;DHT22;5824;49.336;8.652;2022-09-21T08:36:41;27.60;1.00
11536;DHT22;5824;49.336;8.652;2022-09-21T08:39:07;27.70;1.00
11536;DHT22;5824;49.336;8.652;2022-09-21T08:41:59;27.80;1.00
11536;DHT22;5824;49.336;8.652;2022-09-21T08:44:39;28.00;1.00
11536;DHT22;5824;49.336;8.652;2022-09-21T08:47:09;28.30;1.00
11536;DHT22;5824;49.336;8.652;2022-09-21T08:49:37;28.80;1.00
11536;DHT22;5824;49.336;8.652;2022-09-21T08:52:10;29.50;1.00
11536;DHT22;5824;49.336;8.652;2022-09-21T08:54:43;29.60;1.00
11536;DHT22;5824;49.336;8.652;2022-09-21T08:57:15;29.90;1.00
11536;DHT22;5824;49.336;8.652;2022-09-21T08:59:46;29.70;1.00
11536;DHT22;5824;49.336;8.652;2022-09-21T09:05:15;30.40;1.00
11536;DHT22;5824;49.336;8.652;2022-09-21T09:16:08;29.30;1.00
11536;DHT22;5824;49.336;8.652;2022-09-21T09:19:06;29.60;1.00
11536;DHT22;5824;49.336;8.652;2022-09-21T09:21:38;29.70;1.00
11536;DHT22;5824;49.336;8.652;2022-09-21T09:24:05;29.50;1.00
11536;DHT22;5824;49.336;8.652;2022-09-21T09:26:45;29.70;1.00
11536;DHT22;5824;49.336;8.652;2022-09-21T09:32:42;29.70;1.00
11536;DHT22;5824;49.336;8.652;2022-09-21T09:35:38;30.00;1.00
11536;DHT22;5824;49.336;8.652;2022-09-21T09:38:25;30.20;1.00
11536;DHT22;5824;49.336;8.652;2022-09-21T09:51:49;31.00;1.00
11536;DHT22;5824;49.336;8.652;2022-09-21T09:54:17;31.30;1.00
11536;DHT22;5824;49.336;8.652;2022-09-21T09:56:43;32.00;1.00
11536;DHT22;5824;49.336;8.652;2022-09-21T09:59:36;32.20;1.00
11536;DHT22;5824;49.336;8.652;2022-09-21T10:02:04;32.30;1.00
11536;DHT22;5824;49.336;8.652;2022-09-21T10:04:31;32.00;1.00
11536;DHT22;5824;49.336;8.652;2022-09-21T10:06:57;31.50;1.00
11536;DHT22;5824;49.336;8.652;2022-09-21T10:09:31;31.10;1.00
11536;DHT22;5824;49.336;8.652;2022-09-21T10:12:03;30.40;1.00
11536;DHT22;5824;49.336;8.652;2022-09-21T10:14:48;30.30;1.00
11536;DHT22;5824;49.336;8.652;2022-09-21T10:17:16;30.90;1.00
11536;DHT22;5824;49.336;8.652;2022-09-21T10:19:42;31.70;1.00
11536;DHT22;5824;49.336;8.652;2022-09-21T10:22:15;32.20;1.00
11536;DHT22;5824;49.336;8.652;2022-09-21T10:24:45;32.80;1.00
11536;DHT22;5824;49.336;8.652;2022-09-21T10:27:15;33.00;1.00
11536;DHT22;5824;49.336;8.652;2022-09-21T10:34:39;32.00;1.00
11536;DHT22;5824;49.336;8.652;2022-09-21T10:37:25;31.50;1.00
11536;DHT22;5824;49.336;8.652;2022-09-21T10:39:51;31.70;1.00
11536;DHT22;5824;49.336;8.652;2022-09-21T10:42:17;32.10;1.00
11536;DHT22;5824;49.336;8.652;2022-09-21T10:44:48;32.50;1.00
11536;DHT22;5824;49.336;8.652;2022-09-21T10:47:34;32.80;1.00
11536;DHT22;5824;49.336;8.652;2022-09-21T10:50:05;33.20;1.00
11536;DHT22;5824;49.336;8.652;2022-09-21T10:52:41;33.80;1.00
11536;DHT22;5824;49.336;8.652;2022-09-21T10:55:17;34.40;1.00
11536;DHT22;5824;49.336;8.652;2022-09-21T10:57:43;34.90;1.00
11536;DHT22;5824;49.336;8.652;2022-09-21T11:00:26;36.10;1.00
11536;DHT22;5824;49.336;8.652;2022-09-21T11:02:55;37.00;1.00
11536;DHT22;5824;49.336;8.652;2022-09-21T11:05:25;37.00;1.00
11536;DHT22;5824;49.336;8.652;2022-09-21T11:07:57;37.40;1.00
11536;DHT22;5824;49.336;8.652;2022-09-21T11:13:43;37.10;1.00
11536;DHT22;5824;49.336;8.652;2022-09-21T11:16:31;37.20;1.00
11536;DHT22;5824;49.336;8.652;2022-09-21T11:19:18;37.90;1.00
11536;DHT22;5824;49.336;8.652;2022-09-21T11:24:46;38.90;1.00
11536;DHT22;5824;49.336;8.652;2022-09-21T11:27:29;39.20;1.00
11536;DHT22;5824;49.336;8.652;2022-09-21T11:30:13;39.40;1.00
11536;DHT22;5824;49.336;8.652;2022-09-21T11:41:33;38.70;1.00
11536;DHT22;5824;49.336;8.652;2022-09-21T11:50:00;39.20;1.00
11536;DHT22;5824;49.336;8.652;2022-09-21T11:55:34;40.50;1.00
11536;DHT22;5824;49.336;8.652;2022-09-21T12:12:39;40.00;1.00
11536;DHT22;5824;49.336;8.652;2022-09-21T12:17:29;36.10;1.00
11536;DHT22;5824;49.336;8.652;2022-09-21T12:20:08;34.30;1.00
11536;DHT22;5824;49.336;8.652;2022-09-21T12:22:43;31.80;1.00
11536;DHT22;5824;49.336;8.652;2022-09-21T12:25:30;30.40;1.00
11536;DHT22;5824;49.336;8.652;2022-09-21T12:28:02;32.20;1.00
11536;DHT22;5824;49.336;8.652;2022-09-21T12:30:31;34.40;1.00
11536;DHT22;5824;49.336;8.652;2022-09-21T12:33:02;35.10;1.00
11536;DHT22;5824;49.336;8.652;2022-09-21T12:35:43;34.90;1.00
11536;DHT22;5824;49.336;8.652;2022-09-21T12:38:29;35.50;1.00
11536;DHT22;5824;49.336;8.652;2022-09-21T12:41:04;35.10;1.00
11536;DHT22;5824;49.336;8.652;2022-09-21T12:46:22;34.20;1.00
11536;DHT22;5824;49.336;8.652;2022-09-21T12:48:49;31.60;1.00
11536;DHT22;5824;49.336;8.652;2022-09-21T12:53:46;32.20;1.00
11536;DHT22;5824;49.336;8.652;2022-09-21T13:01:54;30.60;1.00
11536;DHT22;5824;49.336;8.652;2022-09-21T13:04:43;28.10;1.00
11536;DHT22;5824;49.336;8.652;2022-09-21T13:10:11;30.90;1.00
11536;DHT22;5824;49.336;8.652;2022-09-21T13:12:40;32.90;1.00
11536;DHT22;5824;49.336;8.652;2022-09-21T13:15:23;34.00;1.00
11536;DHT22;5824;49.336;8.652;2022-09-21T13:18:15;34.50;1.00
11536;DHT22;5824;49.336;8.652;2022-09-21T13:20:42;35.20;1.00
11536;DHT22;5824;49.336;8.652;2022-09-21T13:23:25;35.20;1.00
11536;DHT22;5824;49.336;8.652;2022-09-21T13:26:11;36.10;1.00
11536;DHT22;5824;49.336;8.652;2022-09-21T13:36:40;33.60;1.00
11536;DHT22;5824;49.336;8.652;2022-09-21T13:41:35;34.10;1.00
11536;DHT22;5824;49.336;8.652;2022-09-21T13:46:44;36.00;1.00
11536;DHT22;5824;49.336;8.652;2022-09-21T13:52:05;36.70;1.00
11536;DHT22;5824;49.336;8.652;2022-09-21T13:59:39;37.00;1.00
11536;DHT22;5824;49.336;8.652;2022-09-21T14:02:31;35.90;1.00
11536;DHT22;5824;49.336;8.652;2022-09-21T14:05:07;35.60;1.00
11536;DHT22;5824;49.336;8.652;2022-09-21T14:07:34;34.90;1.00
11536;DHT22;5824;49.336;8.652;2022-09-21T14:10:04;33.70;1.00
11536;DHT22;5824;49.336;8.652;2022-09-21T14:12:37;33.70;1.00
11536;DHT22;5824;49.336;8.652;2022-09-21T14:17:41;34.50;1.00
11536;DHT22;5824;49.336;8.652;2022-09-21T14:20:29;33.70;1.00
11536;DHT22;5824;49.336;8.652;2022-09-21T14:25:57;34.30;1.00
11536;DHT22;5824;49.336;8.652;2022-09-21T14:28:32;33.50;1.00
11536;DHT22;5824;49.336;8.652;2022-09-21T14:31:08;33.00;1.00
11536;DHT22;5824;49.336;8.652;2022-09-21T14:33:47;32.70;1.00
11536;DHT22;5824;49.336;8.652;2022-09-21T14:36:18;32.80;1.00
11536;DHT22;5824;49.336;8.652;2022-09-21T14:38:51;32.30;1.00
11536;DHT22;5824;49.336;8.652;2022-09-21T14:41:21;32.20;1.00
11536;DHT22;5824;49.336;8.652;2022-09-21T14:43:52;32.00;1.00
11536;DHT22;5824;49.336;8.652;2022-09-21T14:55:08;32.50;1.00
11536;DHT22;5824;49.336;8.652;2022-09-21T15:00:50;30.30;1.00
11536;DHT22;5824;49.336;8.652;2022-09-21T15:06:41;28.10;1.00
11536;DHT22;5824;49.336;8.652;2022-09-21T15:12:59;27.70;1.00
11536;DHT22;5824;49.336;8.652;2022-09-21T15:15:43;28.30;1.00
11536;DHT22;5824;49.336;8.652;2022-09-21T15:18:15;28.50;1.00
11536;DHT22;5824;49.336;8.652;2022-09-21T15:20:53;29.20;1.00
11536;DHT22;5824;49.336;8.652;2022-09-21T15:23:19;29.80;1.00
11536;DHT22;5824;49.336;8.652;2022-09-21T15:25:54;30.20;1.00
11536;DHT22;5824;49.336;8.652;2022-09-21T15:28:24;29.90;1.00
11536;DHT22;5824;49.336;8.652;2022-09-21T15:30:55;29.70;1.00
11536;DHT22;5824;49.336;8.652;2022-09-21T15:33:22;29.00;1.00
11536;DHT22;5824;49.336;8.652;2022-09-21T15:35:47;27.20;1.00
11536;DHT22;5824;49.336;8.652;2022-09-21T15:38:30;25.50;1.00
11536;DHT22;5824;49.336;8.652;2022-09-21T15:40:57;24.10;1.00
11536;DHT22;5824;49.336;8.652;2022-09-21T15:43:22;23.30;1.00
11536;DHT22;5824;49.336;8.652;2022-09-21T15:45:59;22.80;1.00
11536;DHT22;5824;49.336;8.652;2022-09-21T15:48:31;22.70;1.00
11536;DHT22;5824;49.336;8.652;2022-09-21T15:53:28;23.00;1.00
11536;DHT22;5824;49.336;8.652;2022-09-21T15:55:56;22.50;1.00
11536;DHT22;5824;49.336;8.652;2022-09-21T15:58:36;21.90;1.00
11536;DHT22;5824;49.336;8.652;2022-09-21T16:01:17;21.30;1.00
11536;DHT22;5824;49.336;8.652;2022-09-21T16:03:46;20.80;1.00
11536;DHT22;5824;49.336;8.652;2022-09-21T16:06:28;20.50;1.00
11536;DHT22;5824;49.336;8.652;2022-09-21T16:11:55;19.60;1.00
11536;DHT22;5824;49.336;8.652;2022-09-21T16:14:21;19.50;1.00
11536;DHT22;5824;49.336;8.652;2022-09-21T16:25:00;19.20;1.00
11536;DHT22;5824;49.336;8.652;2022-09-21T16:27:28;19.10;1.00
11536;DHT22;5824;49.336;8.652;2022-09-21T16:29:55;19.00;1.00
11536;DHT22;5824;49.336;8.652;2022-09-21T16:32:30;18.90;1.00
11536;DHT22;5824;49.336;8.652;2022-09-21T16:35:22;18.90;1.00
11536;DHT22;5824;49.336;8.652;2022-09-21T16:37:52;18.80;1.00
11536;DHT22;5824;49.336;8.652;2022-09-21T16:40:24;18.60;1.00
11536;DHT22;5824;49.336;8.652;2022-09-21T16:42:49;18.50;1.00
11536;DHT22;5824;49.336;8.652;2022-09-21T16:45:22;18.70;1.00
11536;DHT22;5824;49.336;8.652;2022-09-21T16:47:49;18.40;1.00
11536;DHT22;5824;49.336;8.652;2022-09-21T16:50:16;18.30;1.00
11536;DHT22;5824;49.336;8.652;2022-09-21T16:52:43;18.30;1.00
11536;DHT22;5824;49.336;8.652;2022-09-21T16:55:13;18.20;1.00
11536;DHT22;5824;49.336;8.652;2022-09-21T16:57:40;18.10;1.00
11536;DHT22;5824;49.336;8.652;2022-09-21T17:00:11;18.00;1.00
11536;DHT22;5824;49.336;8.652;2022-09-21T17:02:37;17.90;1.00
11536;DHT22;5824;49.336;8.652;2022-09-21T17:05:07;17.80;1.00
11536;DHT22;5824;49.336;8.652;2022-09-21T17:07:33;17.80;1.00
11536;DHT22;5824;49.336;8.652;2022-09-21T17:09:59;17.90;1.00
11536;DHT22;5824;49.336;8.652;2022-09-21T17:12:25;17.80;1.00
11536;DHT22;5824;49.336;8.652;2022-09-21T17:14:52;17.80;1.00
11536;DHT22;5824;49.336;8.652;2022-09-21T17:17:21;17.60;1.00
11536;DHT22;5824;49.336;8.652;2022-09-21T17:19:48;17.50;1.00
11536;DHT22;5824;49.336;8.652;2022-09-21T17:22:14;17.30;1.00
11536;DHT22;5824;49.336;8.652;2022-09-21T17:24:44;17.20;1.00
11536;DHT22;5824;49.336;8.652;2022-09-21T17:27:13;17.10;1.00
11536;DHT22;5824;49.336;8.652;2022-09-21T17:29:42;17.00;1.00
11536;DHT22;5824;49.336;8.652;2022-09-21T17:32:16;16.90;1.00
11536;DHT22;5824;49.336;8.652;2022-09-21T17:34:46;16.80;1.00
11536;DHT22;5824;49.336;8.652;2022-09-21T17:37:14;16.70;1.00
11536;DHT22;5824;49.336;8.652;2022-09-21T17:39:39;16.60;1.00
11536;DHT22;5824;49.336;8.652;2022-09-21T17:42:21;16.50;1.00
11536;DHT22;5824;49.336;8.652;2022-09-21T17:47:37;16.40;1.00
11536;DHT22;5824;49.336;8.652;2022-09-21T17:52:39;16.20;1.00
11536;DHT22;5824;49.336;8.652;2022-09-21T17:55:24;16.10;1.00
11536;DHT22;5824;49.336;8.652;2022-09-21T17:58:03;16.00;1.00
11536;DHT22;5824;49.336;8.652;2022-09-21T18:03:21;15.70;1.00
11536;DHT22;5824;49.336;8.652;2022-09-21T18:05:48;15.70;1.00
11536;DHT22;5824;49.336;8.652;2022-09-21T18:08:15;15.60;1.00
11536;DHT22;5824;49.336;8.652;2022-09-21T18:10:50;15.50;1.00
11536;DHT22;5824;49.336;8.652;2022-09-21T18:13:40;15.50;1.00
11536;DHT22;5824;49.336;8.652;2022-09-21T18:16:30;15.40;1.00
11536;DHT22;5824;49.336;8.652;2022-09-21T18:19:27;15.40;1.00
11536;DHT22;5824;49.336;8.652;2022-09-21T18:22:10;15.20;1.00
11536;DHT22;5824;49.336;8.652;2022-09-21T18:24:38;15.20;1.00
11536;DHT22;5824;49.336;8.652;2022-09-21T18:27:04;15.10;1.00
11536;DHT22;5824;49.336;8.652;2022-09-21T18:29:31;15.10;1.00
11536;DHT22;5824;49.336;8.652;2022-09-21T18:40:54;14.80;1.00
11536;DHT22;5824;49.336;8.652;2022-09-21T18:46:18;14.50;1.00
11536;DHT22;5824;49.336;8.652;2022-09-21T18:54:22;13.90;1.00
11536;DHT22;5824;49.336;8.652;2022-09-21T18:56:49;13.80;1.00
11536;DHT22;5824;49.336;8.652;2022-09-21T18:59:16;13.70;1.00
11536;DHT22;5824;49.336;8.652;2022-09-21T19:01:43;13.60;1.00
11536;DHT22;5824;49.336;8.652;2022-09-21T19:04:09;13.40;1.00
11536;DHT22;5824;49.336;8.652;2022-09-21T19:07:07;13.20;1.00
11536;DHT22;5824;49.336;8.652;2022-09-21T19:10:11;13.10;1.00
11536;DHT22;5824;49.336;8.652;2022-09-21T19:16:00;12.90;1.00
11536;DHT22;5824;49.336;8.652;2022-09-21T19:18:40;12.70;1.00
11536;DHT22;5824;49.336;8.652;2022-09-21T19:24:05;12.60;1.00
11536;DHT22;5824;49.336;8.652;2022-09-21T19:27:00;12.50;1.00
11536;DHT22;5824;49.336;8.652;2022-09-21T19:29:39;12.50;1.00
11536;DHT22;5824;49.336;8.652;2022-09-21T19:32:13;12.40;1.00
11536;DHT22;5824;49.336;8.652;2022-09-21T19:34:40;12.30;1.00
11536;DHT22;5824;49.336;8.652;2022-09-21T19:37:05;12.30;1.00
11536;DHT22;5824;49.336;8.652;2022-09-21T19:39:31;12.20;1.00
11536;DHT22;5824;49.336;8.652;2022-09-21T19:42:25;12.20;1.00
11536;DHT22;5824;49.336;8.652;2022-09-21T19:45:20;12.10;1.00
11536;DHT22;5824;49.336;8.652;2022-09-21T19:47:57;12.10;1.00
11536;DHT22;5824;49.336;8.652;2022-09-21T19:50:51;12.00;1.00
11536;DHT22;5824;49.336;8.652;2022-09-21T19:53:19;11.90;1.00
11536;DHT22;5824;49.336;8.652;2022-09-21T19:56:08;11.90;1.00
11536;DHT22;5824;49.336;8.652;2022-09-21T19:58:53;11.70;1.00
11536;DHT22;5824;49.336;8.652;2022-09-21T20:01:40;11.70;1.00